createdAt,value
2023-04-22T00:00:03.184Z,53.82
2023-04-22T00:01:03.219Z,54.30
2023-04-22T00:02:03.228Z,53.50
2023-04-22T00:03:03.319Z,51.88
2023-04-22T00:04:03.334Z,51.24
2023-04-22T00:05:03.357Z,50.60
2023-04-22T00:06:03.143Z,47.86
2023-04-22T00:07:04.244Z,49.47
2023-04-22T00:08:04.228Z,53.01
2023-04-22T00:09:04.261Z,48.98
2023-04-22T00:10:04.216Z,54.46
2023-04-22T00:11:04.209Z,57.85
2023-04-22T00:12:04.197Z,49.15
2023-04-22T00:13:04.215Z,53.50
2023-04-22T00:14:05.214Z,47.70
2023-04-22T00:15:04.265Z,48.98
2023-04-22T00:16:04.185Z,49.15
2023-04-22T00:17:04.206Z,50.92
2023-04-22T00:18:04.199Z,48.98
2023-04-22T00:19:04.148Z,53.82
2023-04-22T00:20:04.131Z,52.37
2023-04-22T00:21:04.129Z,50.92
2023-04-22T00:23:47.087Z,50.27
2023-04-22T00:24:47.080Z,48.50
2023-04-22T00:25:50.410Z,53.82
2023-04-22T00:26:49.179Z,52.21
2023-04-22T00:27:48.179Z,44.79
2023-04-22T00:28:48.142Z,48.50
2023-04-22T00:29:48.151Z,47.21
2023-04-22T00:30:48.121Z,44.15
2023-04-22T00:31:48.201Z,44.63
2023-04-22T00:32:48.213Z,48.66
2023-04-22T00:33:48.119Z,47.05
2023-04-22T00:34:48.099Z,48.34
2023-04-22T00:35:48.097Z,47.53
2023-04-22T00:36:48.079Z,53.50
2023-04-22T00:37:48.086Z,48.34
2023-04-22T00:38:48.058Z,45.44
2023-04-22T00:39:48.047Z,46.73
2023-04-22T00:40:48.048Z,48.50
2023-04-22T00:41:48.066Z,48.66
2023-04-22T00:42:48.032Z,51.56
2023-04-22T00:43:48.033Z,48.50
2023-04-22T00:44:48.021Z,47.53
2023-04-22T00:45:48.517Z,55.43
2023-04-22T00:46:48.002Z,54.46
2023-04-22T00:47:48.090Z,48.02
2023-04-22T00:48:47.977Z,48.50
2023-04-22T00:49:47.967Z,49.47
2023-04-22T00:50:47.976Z,49.79
2023-04-22T00:51:47.980Z,53.33
2023-04-22T00:52:47.958Z,53.66
2023-04-22T00:53:47.955Z,48.66
2023-04-22T00:54:47.940Z,50.27
2023-04-22T00:55:47.959Z,49.15
2023-04-22T00:56:47.922Z,50.92
2023-04-22T00:57:47.913Z,49.15
2023-04-22T00:58:48.539Z,51.40
2023-04-22T00:59:47.917Z,46.08
2023-04-22T01:00:48.491Z,46.73
2023-04-22T01:01:47.929Z,52.21
2023-04-22T01:02:48.120Z,49.47
2023-04-22T01:03:48.104Z,51.56
2023-04-22T01:04:47.892Z,52.69
2023-04-22T01:05:47.848Z,54.14
2023-04-22T01:06:47.857Z,50.76
2023-04-22T01:07:47.824Z,49.79
2023-04-22T01:08:47.832Z,52.21
2023-04-22T01:09:47.827Z,53.33
2023-04-22T01:10:47.799Z,55.75
2023-04-22T01:11:47.792Z,50.76
2023-04-22T01:12:47.784Z,45.12
2023-04-22T01:13:47.778Z,47.70
2023-04-22T01:14:47.782Z,45.44
2023-04-22T01:15:47.760Z,47.70
2023-04-22T01:16:47.821Z,48.98
2023-04-22T01:17:47.861Z,49.31
2023-04-22T01:18:47.772Z,47.37
2023-04-22T01:19:47.751Z,48.98
2023-04-22T01:20:47.721Z,49.47
2023-04-22T01:21:48.567Z,47.86
2023-04-22T01:22:48.458Z,48.18
2023-04-22T01:23:47.709Z,53.50
2023-04-22T01:24:47.687Z,56.40
2023-04-22T01:25:47.690Z,45.44
2023-04-22T01:26:47.683Z,47.37
2023-04-22T01:27:47.667Z,47.05
2023-04-22T01:28:47.672Z,43.51
2023-04-22T01:29:47.662Z,44.15
2023-04-22T01:30:47.649Z,49.31
2023-04-22T01:31:47.680Z,47.21
2023-04-22T01:32:47.711Z,48.66
2023-04-22T01:33:47.623Z,51.40
2023-04-22T01:34:48.979Z,45.28
2023-04-22T01:35:48.450Z,46.73
2023-04-22T01:36:50.927Z,43.83
2023-04-22T01:37:47.598Z,47.05
2023-04-22T01:38:47.605Z,49.47
2023-04-22T01:39:55.545Z,45.28
2023-04-22T01:40:50.491Z,45.28
2023-04-22T01:41:48.567Z,48.18
2023-04-22T01:42:47.721Z,54.62
2023-04-22T01:43:48.701Z,45.44
2023-04-22T01:44:48.593Z,45.44
2023-04-22T01:45:48.193Z,47.70
2023-04-22T01:46:47.523Z,43.67
2023-04-22T01:47:47.622Z,45.44
2023-04-22T01:48:47.503Z,52.05
2023-04-22T01:49:47.497Z,52.85
2023-04-22T01:50:48.548Z,45.76
2023-04-22T01:51:47.480Z,48.66
2023-04-22T01:52:47.514Z,45.44
2023-04-22T01:53:47.457Z,47.37
2023-04-22T01:54:47.467Z,51.56
2023-04-22T01:55:47.469Z,50.60
2023-04-22T01:56:47.435Z,46.57
2023-04-22T01:57:47.439Z,51.40
2023-04-22T01:58:47.417Z,46.41
2023-04-22T01:59:48.427Z,43.99
2023-04-22T02:00:47.420Z,44.63
2023-04-22T02:01:47.444Z,44.15
2023-04-22T02:02:47.511Z,44.15
2023-04-22T02:03:47.463Z,47.86
2023-04-22T02:04:47.402Z,48.98
2023-04-22T02:05:47.366Z,49.15
2023-04-22T02:06:47.379Z,47.37
2023-04-22T02:07:47.374Z,48.98
2023-04-22T02:08:47.350Z,53.50
2023-04-22T02:09:48.735Z,52.69
2023-04-22T02:10:47.319Z,47.70
2023-04-22T02:11:47.322Z,46.73
2023-04-22T02:12:47.313Z,52.05
2023-04-22T02:13:47.330Z,49.15
2023-04-22T02:14:47.305Z,45.76
2023-04-22T02:15:48.117Z,46.89
2023-04-22T02:16:47.307Z,45.12
2023-04-22T02:17:47.277Z,47.53
2023-04-22T02:18:47.270Z,47.70
2023-04-22T02:19:47.296Z,46.73
2023-04-22T02:20:47.259Z,48.34
2023-04-22T02:21:47.237Z,46.89
2023-04-22T02:22:47.239Z,47.37
2023-04-22T02:23:47.229Z,51.40
2023-04-22T02:24:47.220Z,43.34
2023-04-22T02:25:47.221Z,44.96
2023-04-22T02:26:47.215Z,43.99
2023-04-22T02:27:47.193Z,43.34
2023-04-22T02:28:47.205Z,43.99
2023-04-22T02:29:47.239Z,48.50
2023-04-22T02:30:48.063Z,49.15
2023-04-22T02:31:47.349Z,48.02
2023-04-22T02:32:47.269Z,48.34
2023-04-22T02:33:47.163Z,44.63
2023-04-22T02:34:47.149Z,44.31
2023-04-22T02:35:47.124Z,41.25
2023-04-22T02:36:47.126Z,42.54
2023-04-22T02:37:47.158Z,44.79
2023-04-22T02:38:47.129Z,44.96
2023-04-22T02:39:47.108Z,47.05
2023-04-22T02:40:47.119Z,46.89
2023-04-22T02:41:47.092Z,48.66
2023-04-22T02:42:47.116Z,43.83
2023-04-22T02:43:47.097Z,44.15
2023-04-22T02:44:47.090Z,43.99
2023-04-22T02:45:47.100Z,42.38
2023-04-22T02:46:47.105Z,45.92
2023-04-22T02:47:47.109Z,47.21
2023-04-22T02:48:47.048Z,47.53
2023-04-22T02:49:47.045Z,46.57
2023-04-22T02:50:47.021Z,44.47
2023-04-22T02:51:47.013Z,43.34
2023-04-22T02:52:47.006Z,45.44
2023-04-22T02:53:46.991Z,50.76
2023-04-22T02:54:46.983Z,48.50
2023-04-22T02:55:46.973Z,49.47
2023-04-22T02:56:46.986Z,45.28
2023-04-22T02:57:46.985Z,46.73
2023-04-22T02:58:46.993Z,48.02
2023-04-22T02:59:46.950Z,49.31
2023-04-22T03:00:46.969Z,50.92
2023-04-22T03:01:46.940Z,50.11
2023-04-22T03:02:46.997Z,48.50
2023-04-22T03:03:47.069Z,45.12
2023-04-22T03:04:46.905Z,46.89
2023-04-22T03:05:46.893Z,47.86
2023-04-22T03:06:46.904Z,47.05
2023-04-22T03:07:46.880Z,44.63
2023-04-22T03:08:46.917Z,47.21
2023-04-22T03:09:46.873Z,48.98
2023-04-22T03:10:46.879Z,48.66
2023-04-22T03:11:46.846Z,51.56
2023-04-22T03:12:46.847Z,46.57
2023-04-22T03:13:46.856Z,51.40
2023-04-22T03:14:46.840Z,45.60
2023-04-22T03:15:46.825Z,46.41
2023-04-22T03:16:46.854Z,46.89
2023-04-22T03:17:46.826Z,48.34
2023-04-22T03:18:46.804Z,50.43
2023-04-22T03:19:46.785Z,47.70
2023-04-22T03:20:46.791Z,47.21
2023-04-22T03:21:46.785Z,48.82
2023-04-22T03:22:46.773Z,52.37
2023-04-22T03:23:46.764Z,49.47
2023-04-22T03:24:46.766Z,48.02
2023-04-22T03:25:46.752Z,46.57
2023-04-22T03:26:46.730Z,48.66
2023-04-22T03:27:46.730Z,51.72
2023-04-22T03:28:46.801Z,53.50
2023-04-22T03:29:46.723Z,50.27
2023-04-22T03:30:46.709Z,49.47
2023-04-22T03:31:46.725Z,48.50
2023-04-22T03:32:46.719Z,47.21
2023-04-22T03:33:46.687Z,49.79
2023-04-22T03:34:46.694Z,55.59
2023-04-22T03:35:46.681Z,52.53
2023-04-22T03:36:46.666Z,49.15
2023-04-22T03:37:46.653Z,49.47
2023-04-22T03:38:46.652Z,49.95
2023-04-22T03:39:46.663Z,54.14
2023-04-22T03:40:46.650Z,52.85
2023-04-22T03:41:46.629Z,54.14
2023-04-22T03:42:46.626Z,48.50
2023-04-22T03:43:46.668Z,50.76
2023-04-22T03:44:46.631Z,52.85
2023-04-22T03:45:46.603Z,53.50
2023-04-22T03:46:46.584Z,53.01
2023-04-22T03:47:46.635Z,53.50
2023-04-22T03:48:46.595Z,53.33
2023-04-22T03:49:46.610Z,50.27
2023-04-22T03:50:46.586Z,49.47
2023-04-22T03:51:46.550Z,48.18
2023-04-22T03:52:46.539Z,50.43
2023-04-22T03:53:46.541Z,53.50
2023-04-22T03:54:46.530Z,50.11
2023-04-22T03:55:46.539Z,52.37
2023-04-22T03:56:46.507Z,48.66
2023-04-22T03:57:46.502Z,47.70
2023-04-22T03:58:46.514Z,53.33
2023-04-22T03:59:46.501Z,47.05
2023-04-22T04:00:46.486Z,53.33
2023-04-22T04:01:46.497Z,48.66
2023-04-22T04:02:46.835Z,51.88
2023-04-22T04:03:46.696Z,50.27
2023-04-22T04:04:47.183Z,48.82
2023-04-22T04:05:46.509Z,49.79
2023-04-22T04:06:46.421Z,53.01
2023-04-22T04:07:46.428Z,52.69
2023-04-22T04:08:46.414Z,50.60
2023-04-22T04:09:46.415Z,52.21
2023-04-22T04:10:46.418Z,51.24
2023-04-22T04:11:46.449Z,50.60
2023-04-22T04:12:46.382Z,50.76
2023-04-22T04:13:46.363Z,53.17
2023-04-22T04:14:46.367Z,51.08
2023-04-22T04:15:46.376Z,49.95
2023-04-22T04:16:46.339Z,49.15
2023-04-22T04:17:46.422Z,51.08
2023-04-22T04:18:46.366Z,53.01
2023-04-22T04:19:46.326Z,53.33
2023-04-22T04:20:46.317Z,52.53
2023-04-22T04:21:46.308Z,54.95
2023-04-22T04:22:46.293Z,54.62
2023-04-22T04:23:46.309Z,50.27
2023-04-22T04:24:46.281Z,54.46
2023-04-22T04:25:46.282Z,52.21
2023-04-22T04:26:47.087Z,51.88
2023-04-22T04:27:46.254Z,53.01
2023-04-22T04:28:46.254Z,52.85
2023-04-22T04:29:46.252Z,50.11
2023-04-22T04:30:46.256Z,52.05
2023-04-22T04:31:46.310Z,53.01
2023-04-22T04:32:46.303Z,48.66
2023-04-22T04:33:46.249Z,54.95
2023-04-22T04:34:46.210Z,56.40
2023-04-22T04:35:46.198Z,50.60
2023-04-22T04:36:46.190Z,48.50
2023-04-22T04:37:46.186Z,54.14
2023-04-22T04:38:46.196Z,53.66
2023-04-22T04:39:46.200Z,51.72
2023-04-22T04:40:46.161Z,52.37
2023-04-22T04:41:46.138Z,53.17
2023-04-22T04:42:46.995Z,52.69
2023-04-22T04:43:46.149Z,52.37
2023-04-22T04:44:46.124Z,51.88
2023-04-22T04:45:48.364Z,55.11
2023-04-22T04:46:47.157Z,54.30
2023-04-22T04:47:46.146Z,50.11
2023-04-22T04:48:46.102Z,51.40
2023-04-22T04:49:46.086Z,53.01
2023-04-22T04:50:48.582Z,50.27
2023-04-22T04:51:46.126Z,52.53
2023-04-22T04:52:46.074Z,53.17
2023-04-22T04:53:46.105Z,53.98
2023-04-22T04:54:46.072Z,52.69
2023-04-22T04:55:46.045Z,51.56
2023-04-22T04:56:46.026Z,48.18
2023-04-22T04:57:46.021Z,51.72
2023-04-22T04:58:46.032Z,51.88
2023-04-22T04:59:46.040Z,51.40
2023-04-22T05:00:46.005Z,52.85
2023-04-22T05:01:46.089Z,52.21
2023-04-22T05:02:46.025Z,51.56
2023-04-22T05:03:46.147Z,50.92
2023-04-22T05:04:46.079Z,53.01
2023-04-22T05:05:45.960Z,59.78
2023-04-22T05:06:45.947Z,57.04
2023-04-22T05:07:45.941Z,54.30
2023-04-22T05:08:45.940Z,51.08
2023-04-22T05:09:45.987Z,51.72
2023-04-22T05:10:45.910Z,54.95
2023-04-22T05:11:45.925Z,57.04
2023-04-22T05:12:45.927Z,51.24
2023-04-22T05:13:46.543Z,53.17
2023-04-22T05:14:45.896Z,55.43
2023-04-22T05:15:46.636Z,56.88
2023-04-22T05:16:45.928Z,52.85
2023-04-22T05:17:46.033Z,52.37
2023-04-22T05:18:45.865Z,56.56
2023-04-22T05:19:45.848Z,64.29
2023-04-22T05:20:45.860Z,57.04
2023-04-22T05:21:45.870Z,58.17
2023-04-22T05:22:45.861Z,51.08
2023-04-22T05:23:47.608Z,53.33
2023-04-22T05:24:45.799Z,55.75
2023-04-22T05:25:45.803Z,57.52
2023-04-22T05:26:45.805Z,53.33
2023-04-22T05:27:45.789Z,51.40
2023-04-22T05:28:45.795Z,52.05
2023-04-22T05:29:45.792Z,59.14
2023-04-22T05:30:45.776Z,59.14
2023-04-22T05:31:45.776Z,53.82
2023-04-22T05:32:45.825Z,56.88
2023-04-22T05:33:46.592Z,52.21
2023-04-22T05:34:45.724Z,51.40
2023-04-22T05:35:46.734Z,52.05
2023-04-22T05:36:45.739Z,57.04
2023-04-22T05:37:45.697Z,54.95
2023-04-22T05:38:45.706Z,57.04
2023-04-22T05:39:45.677Z,50.60
2023-04-22T05:40:45.706Z,49.79
2023-04-22T05:41:47.048Z,50.76
2023-04-22T05:42:46.684Z,55.11
2023-04-22T05:43:45.664Z,52.37
2023-04-22T05:44:45.654Z,56.24
2023-04-22T05:45:45.698Z,52.05
2023-04-22T05:46:45.626Z,54.79
2023-04-22T05:47:45.721Z,54.14
2023-04-22T05:48:45.630Z,54.46
2023-04-22T05:49:45.620Z,50.92
2023-04-22T05:50:45.624Z,57.04
2023-04-22T05:51:45.601Z,56.07
2023-04-22T05:52:45.587Z,56.56
2023-04-22T05:53:45.566Z,57.52
2023-04-22T05:54:45.583Z,58.49
2023-04-22T05:55:45.578Z,56.40
2023-04-22T05:56:45.571Z,60.26
2023-04-22T05:57:46.564Z,59.46
2023-04-22T05:58:45.546Z,59.46
2023-04-22T05:59:46.138Z,59.30
2023-04-22T06:00:45.525Z,58.49
2023-04-22T06:01:45.521Z,56.40
2023-04-22T06:02:45.779Z,54.62
2023-04-22T06:03:45.592Z,54.62
2023-04-22T06:04:45.829Z,54.46
2023-04-22T06:05:45.582Z,53.01
2023-04-22T06:06:45.529Z,53.82
2023-04-22T06:07:45.471Z,56.40
2023-04-22T06:08:45.476Z,49.95
2023-04-22T06:09:45.450Z,54.30
2023-04-22T06:10:45.451Z,54.30
2023-04-22T06:11:45.478Z,53.82
2023-04-22T06:12:45.461Z,57.36
2023-04-22T06:13:45.474Z,55.27
2023-04-22T06:14:45.420Z,54.95
2023-04-22T06:15:47.087Z,57.04
2023-04-22T06:16:46.110Z,54.79
2023-04-22T06:17:45.438Z,55.43
2023-04-22T06:18:45.411Z,57.69
2023-04-22T06:19:45.397Z,55.43
2023-04-22T06:20:45.376Z,54.79
2023-04-22T06:21:45.370Z,58.01
2023-04-22T06:22:45.364Z,58.97
2023-04-22T06:23:45.353Z,57.36
2023-04-22T06:24:46.355Z,58.65
2023-04-22T06:25:45.345Z,58.49
2023-04-22T06:26:45.351Z,54.95
2023-04-22T06:27:45.330Z,53.17
2023-04-22T06:28:45.303Z,52.85
2023-04-22T06:29:45.352Z,56.56
2023-04-22T06:30:45.299Z,60.42
2023-04-22T06:31:45.368Z,55.11
2023-04-22T06:32:45.330Z,58.81
2023-04-22T06:33:45.272Z,59.46
2023-04-22T06:34:45.278Z,53.98
2023-04-22T06:35:45.272Z,53.82
2023-04-22T06:36:45.250Z,55.59
2023-04-22T06:37:45.270Z,53.50
2023-04-22T06:38:45.230Z,55.59
2023-04-22T06:39:45.272Z,55.91
2023-04-22T06:40:45.214Z,59.62
2023-04-22T06:41:45.228Z,55.91
2023-04-22T06:42:45.203Z,59.94
2023-04-22T06:43:46.075Z,62.20
2023-04-22T06:44:45.199Z,58.65
2023-04-22T06:45:45.167Z,56.24
2023-04-22T06:46:45.287Z,57.36
2023-04-22T06:47:45.168Z,54.95
2023-04-22T06:48:45.175Z,53.50
2023-04-22T06:49:45.128Z,57.04
2023-04-22T06:50:45.138Z,53.33
2023-04-22T06:51:45.132Z,57.20
2023-04-22T06:52:45.110Z,56.56
2023-04-22T06:53:45.128Z,60.26
2023-04-22T06:54:45.658Z,57.52
2023-04-22T06:55:46.145Z,59.78
2023-04-22T06:56:45.163Z,59.78
2023-04-22T06:57:45.079Z,54.62
2023-04-22T06:58:45.057Z,54.46
2023-04-22T06:59:46.638Z,56.72
2023-04-22T07:00:46.069Z,60.42
2023-04-22T07:01:45.099Z,55.75
2023-04-22T07:02:45.114Z,57.52
2023-04-22T07:03:45.072Z,55.59
2023-04-22T07:04:45.137Z,57.36
2023-04-22T07:05:45.009Z,58.17
2023-04-22T07:06:45.018Z,59.78
2023-04-22T07:07:44.996Z,56.24
2023-04-22T07:08:45.006Z,54.30
2023-04-22T07:09:45.003Z,55.11
2023-04-22T07:10:44.977Z,54.79
2023-04-22T07:11:44.969Z,57.36
2023-04-22T07:12:44.967Z,58.65
2023-04-22T07:13:44.952Z,56.56
2023-04-22T07:14:44.950Z,53.98
2023-04-22T07:15:44.968Z,55.91
2023-04-22T07:16:45.018Z,52.85
2023-04-22T07:17:44.958Z,55.59
2023-04-22T07:18:44.937Z,57.52
2023-04-22T07:19:44.896Z,60.10
2023-04-22T07:20:45.639Z,56.88
2023-04-22T07:21:44.883Z,60.10
2023-04-22T07:22:44.888Z,60.26
2023-04-22T07:23:44.865Z,55.11
2023-04-22T07:24:44.868Z,58.33
2023-04-22T07:25:44.840Z,57.04
2023-04-22T07:26:44.837Z,60.10
2023-04-22T07:27:44.852Z,58.01
2023-04-22T07:28:44.833Z,56.56
2023-04-22T07:29:44.833Z,57.69
2023-04-22T07:30:44.815Z,61.23
2023-04-22T07:31:44.869Z,58.17
2023-04-22T07:32:46.345Z,60.91
2023-04-22T07:33:45.795Z,56.72
2023-04-22T07:34:44.789Z,58.17
2023-04-22T07:35:45.785Z,57.52
2023-04-22T07:36:44.803Z,59.94
2023-04-22T07:37:44.771Z,55.27
2023-04-22T07:38:44.787Z,54.79
2023-04-22T07:39:44.738Z,58.17
2023-04-22T07:40:44.743Z,56.24
2023-04-22T07:41:44.723Z,57.85
2023-04-22T07:42:44.734Z,57.36
2023-04-22T07:43:45.162Z,58.49
2023-04-22T07:44:44.725Z,55.59
2023-04-22T07:45:44.711Z,58.97
2023-04-22T07:46:44.681Z,58.65
2023-04-22T07:47:44.709Z,57.20
2023-04-22T07:48:44.667Z,57.69
2023-04-22T07:49:44.668Z,57.85
2023-04-22T07:50:44.656Z,53.98
2023-04-22T07:51:44.658Z,57.52
2023-04-22T07:52:44.660Z,58.65
2023-04-22T07:53:44.650Z,57.36
2023-04-22T07:54:46.579Z,59.30
2023-04-22T07:55:44.624Z,57.52
2023-04-22T07:56:44.617Z,59.78
2023-04-22T07:57:44.611Z,58.17
2023-04-22T07:58:44.623Z,57.20
2023-04-22T07:59:44.600Z,58.65
2023-04-22T08:00:44.644Z,58.97
2023-04-22T08:01:44.595Z,58.97
2023-04-22T08:02:44.691Z,57.04
2023-04-22T08:03:44.899Z,57.69
2023-04-22T08:04:44.581Z,57.36
2023-04-22T08:05:44.546Z,56.88
2023-04-22T08:06:44.560Z,57.04
2023-04-22T08:07:44.528Z,59.78
2023-04-22T08:08:44.550Z,57.36
2023-04-22T08:09:44.519Z,59.14
2023-04-22T08:10:44.528Z,55.59
2023-04-22T08:11:44.517Z,57.69
2023-04-22T08:12:44.519Z,56.07
2023-04-22T08:13:44.499Z,54.79
2023-04-22T08:14:44.485Z,58.01
2023-04-22T08:15:44.513Z,56.72
2023-04-22T08:16:44.458Z,58.17
2023-04-22T08:17:44.518Z,57.69
2023-04-22T08:18:44.451Z,59.14
2023-04-22T08:19:44.474Z,58.01
2023-04-22T08:20:44.434Z,59.78
2023-04-22T08:21:44.437Z,58.65
2023-04-22T08:22:44.423Z,58.65
2023-04-22T08:23:44.419Z,61.55
2023-04-22T08:24:44.408Z,63.16
2023-04-22T08:25:44.392Z,59.30
2023-04-22T08:26:44.403Z,56.56
2023-04-22T08:27:44.412Z,59.46
2023-04-22T08:28:44.421Z,59.62
2023-04-22T08:29:44.545Z,59.62
2023-04-22T08:30:44.381Z,59.46
2023-04-22T08:31:44.466Z,57.20
2023-04-22T08:32:44.449Z,59.46
2023-04-22T08:33:44.338Z,58.97
2023-04-22T08:34:44.353Z,57.52
2023-04-22T08:35:44.337Z,57.36
2023-04-22T08:36:44.375Z,57.85
2023-04-22T08:37:44.324Z,57.36
2023-04-22T08:38:44.332Z,58.49
2023-04-22T08:39:44.302Z,59.78
2023-04-22T08:40:44.339Z,59.30
2023-04-22T08:41:45.114Z,57.52
2023-04-22T08:42:44.303Z,58.01
2023-04-22T08:43:44.266Z,59.78
2023-04-22T08:44:44.250Z,57.52
2023-04-22T08:45:44.240Z,57.04
2023-04-22T08:46:45.081Z,56.88
2023-04-22T08:47:44.304Z,56.72
2023-04-22T08:48:44.585Z,58.17
2023-04-22T08:49:44.222Z,58.01
2023-04-22T08:50:44.209Z,57.69
2023-04-22T08:51:44.266Z,58.01
2023-04-22T08:52:44.200Z,59.62
2023-04-22T08:53:44.191Z,57.36
2023-04-22T08:54:44.168Z,55.11
2023-04-22T08:55:44.166Z,55.11
2023-04-22T08:56:44.157Z,53.98
2023-04-22T08:57:44.132Z,58.17
2023-04-22T08:58:44.159Z,57.69
2023-04-22T08:59:44.143Z,59.46
2023-04-22T09:00:44.120Z,58.97
2023-04-22T09:01:44.135Z,57.85
2023-04-22T09:02:44.122Z,58.97
2023-04-22T09:03:44.259Z,54.30
2023-04-22T09:04:44.081Z,59.78
2023-04-22T09:05:44.086Z,56.40
2023-04-22T09:06:44.081Z,60.42
2023-04-22T09:07:44.098Z,54.46
2023-04-22T09:08:44.076Z,57.36
2023-04-22T09:09:44.074Z,60.75
2023-04-22T09:10:44.046Z,58.17
2023-04-22T09:11:44.081Z,54.95
2023-04-22T09:12:44.036Z,58.01
2023-04-22T09:13:44.073Z,57.20
2023-04-22T09:14:44.010Z,53.01
2023-04-22T09:15:44.022Z,56.07
2023-04-22T09:16:45.623Z,55.75
2023-04-22T09:17:44.043Z,57.20
2023-04-22T09:18:44.340Z,57.36
2023-04-22T09:19:43.993Z,59.46
2023-04-22T09:20:44.089Z,58.17
2023-04-22T09:21:43.972Z,59.62
2023-04-22T09:22:43.964Z,57.69
2023-04-22T09:23:43.968Z,57.69
2023-04-22T09:24:43.950Z,60.75
2023-04-22T09:25:43.930Z,62.84
2023-04-22T09:26:43.916Z,58.01
2023-04-22T09:27:43.910Z,61.71
2023-04-22T09:28:43.900Z,62.20
2023-04-22T09:29:43.901Z,61.55
2023-04-22T09:30:43.884Z,63.00
2023-04-22T09:31:43.895Z,57.69
2023-04-22T09:32:43.890Z,59.62
2023-04-22T09:33:43.865Z,53.50
2023-04-22T09:34:43.863Z,53.98
2023-04-22T09:35:43.859Z,59.30
2023-04-22T09:36:43.853Z,57.85
2023-04-22T09:37:49.497Z,58.65
2023-04-22T09:38:45.809Z,58.17
2023-04-22T09:39:43.815Z,59.62
2023-04-22T09:40:43.810Z,59.14
2023-04-22T09:41:43.802Z,59.14
2023-04-22T09:42:43.800Z,59.62
2023-04-22T09:43:44.632Z,57.04
2023-04-22T09:44:43.848Z,55.91
2023-04-22T09:45:43.803Z,58.17
2023-04-22T09:46:43.776Z,59.14
2023-04-22T09:47:43.777Z,58.97
2023-04-22T09:48:43.739Z,60.26
2023-04-22T09:49:43.949Z,58.97
2023-04-22T09:50:43.723Z,57.20
2023-04-22T09:51:43.714Z,60.91
2023-04-22T09:52:43.726Z,59.94
2023-04-22T09:53:43.714Z,60.59
2023-04-22T09:54:43.703Z,60.42
2023-04-22T09:55:43.702Z,61.23
2023-04-22T09:56:43.682Z,61.71
2023-04-22T09:57:43.662Z,61.71
2023-04-22T09:58:43.679Z,58.17
2023-04-22T09:59:43.662Z,58.01
2023-04-22T10:00:43.649Z,60.59
2023-04-22T10:01:43.683Z,58.33
2023-04-22T10:02:43.796Z,60.42
2023-04-22T10:03:43.659Z,57.20
2023-04-22T10:04:43.620Z,56.56
2023-04-22T10:05:43.597Z,59.30
2023-04-22T10:06:43.605Z,54.30
2023-04-22T10:07:43.684Z,57.85
2023-04-22T10:08:43.591Z,55.27
2023-04-22T10:09:43.573Z,56.07
2023-04-22T10:10:43.592Z,60.42
2023-04-22T10:11:43.585Z,57.85
2023-04-22T10:12:43.540Z,60.10
2023-04-22T10:13:43.556Z,53.66
2023-04-22T10:14:44.561Z,56.24
2023-04-22T10:15:43.521Z,57.69
2023-04-22T10:16:43.586Z,56.56
2023-04-22T10:17:43.570Z,57.69
2023-04-22T10:18:43.512Z,59.14
2023-04-22T10:19:43.520Z,58.17
2023-04-22T10:20:43.504Z,57.20
2023-04-22T10:21:43.487Z,56.56
2023-04-22T10:22:43.493Z,59.94
2023-04-22T10:23:43.491Z,61.71
2023-04-22T10:24:43.492Z,59.30
2023-04-22T10:25:43.447Z,60.26
2023-04-22T10:26:43.642Z,59.14
2023-04-22T10:27:43.426Z,61.87
2023-04-22T10:28:43.411Z,61.55
2023-04-22T10:29:43.778Z,61.39
2023-04-22T10:30:48.351Z,59.62
2023-04-22T10:31:43.422Z,59.30
2023-04-22T10:32:44.250Z,56.72
2023-04-22T10:33:43.396Z,56.88
2023-04-22T10:34:43.365Z,57.85
2023-04-22T10:35:43.390Z,59.78
2023-04-22T10:36:43.368Z,58.33
2023-04-22T10:37:43.403Z,55.11
2023-04-22T10:38:43.347Z,58.65
2023-04-22T10:39:43.600Z,59.78
2023-04-22T10:40:43.311Z,57.52
2023-04-22T10:41:43.316Z,59.30
2023-04-22T10:42:43.324Z,54.79
2023-04-22T10:43:43.299Z,58.81
2023-04-22T10:44:43.301Z,58.97
2023-04-22T10:45:43.281Z,59.14
2023-04-22T10:46:43.312Z,56.72
2023-04-22T10:47:43.280Z,59.46
2023-04-22T10:48:44.253Z,58.65
2023-04-22T10:49:43.257Z,59.30
2023-04-22T10:50:43.241Z,59.94
2023-04-22T10:51:43.235Z,57.04
2023-04-22T10:52:43.238Z,56.56
2023-04-22T10:53:43.261Z,58.17
2023-04-22T10:54:43.219Z,60.75
2023-04-22T10:55:43.210Z,59.78
2023-04-22T10:56:51.874Z,57.20
2023-04-22T10:57:45.240Z,59.14
2023-04-22T10:58:43.243Z,59.94
2023-04-22T10:59:43.198Z,58.49
2023-04-22T11:00:53.231Z,61.55
2023-04-22T11:01:45.223Z,59.30
2023-04-22T11:02:43.272Z,60.42
2023-04-22T11:03:43.218Z,60.42
2023-04-22T11:04:43.160Z,63.00
2023-04-22T11:05:43.143Z,58.81
2023-04-22T11:06:43.148Z,59.14
2023-04-22T11:07:43.119Z,60.42
2023-04-22T11:08:43.108Z,61.39
2023-04-22T11:09:43.098Z,58.97
2023-04-22T11:10:44.446Z,58.33
2023-04-22T11:11:44.092Z,58.17
2023-04-22T11:12:43.106Z,60.26
2023-04-22T11:13:43.114Z,58.65
2023-04-22T11:14:43.062Z,59.30
2023-04-22T11:15:43.056Z,60.10
2023-04-22T11:16:43.060Z,59.78
2023-04-22T11:17:43.097Z,58.81
2023-04-22T11:18:43.070Z,59.30
2023-04-22T11:19:43.021Z,58.81
2023-04-22T11:20:43.016Z,58.81
2023-04-22T11:21:43.020Z,61.55
2023-04-22T11:22:42.981Z,59.62
2023-04-22T11:23:43.982Z,60.75
2023-04-22T11:24:42.976Z,57.20
2023-04-22T11:25:43.005Z,57.85
2023-04-22T11:26:42.994Z,59.46
2023-04-22T11:27:42.976Z,59.46
2023-04-22T11:28:42.963Z,60.26
2023-04-22T11:29:42.936Z,59.46
2023-04-22T11:30:42.942Z,60.59
2023-04-22T11:31:42.983Z,57.69
2023-04-22T11:32:42.959Z,59.78
2023-04-22T11:33:42.908Z,58.17
2023-04-22T11:34:42.910Z,59.46
2023-04-22T11:35:42.906Z,58.97
2023-04-22T11:36:43.670Z,59.78
2023-04-22T11:37:42.877Z,58.33
2023-04-22T11:38:42.869Z,56.07
2023-04-22T11:40:01.669Z,58.97
2023-04-22T11:40:46.601Z,55.75
2023-04-22T11:41:43.855Z,59.78
2023-04-22T11:42:42.863Z,59.46
2023-04-22T11:43:42.843Z,58.17
2023-04-22T11:44:42.822Z,59.46
2023-04-22T11:45:43.801Z,58.17
2023-04-22T11:46:42.810Z,59.94
2023-04-22T11:47:42.820Z,59.30
2023-04-22T11:48:42.801Z,59.46
2023-04-22T11:49:42.789Z,58.01
2023-04-22T11:50:42.810Z,57.36
2023-04-22T11:51:43.685Z,60.10
2023-04-22T11:52:42.776Z,58.17
2023-04-22T11:53:42.756Z,58.33
2023-04-22T11:54:42.755Z,59.94
2023-04-22T11:55:42.806Z,59.78
2023-04-22T11:56:42.719Z,57.85
2023-04-22T11:57:42.734Z,56.56
2023-04-22T11:58:42.725Z,59.78
2023-04-22T11:59:42.690Z,57.52
2023-04-22T12:00:42.710Z,61.55
2023-04-22T12:01:42.684Z,59.14
2023-04-22T12:02:42.797Z,60.10
2023-04-22T12:03:43.021Z,60.26
2023-04-22T12:04:42.728Z,58.65
2023-04-22T12:05:42.700Z,60.10
2023-04-22T12:06:42.664Z,58.65
2023-04-22T12:07:42.642Z,58.65
2023-04-22T12:08:42.787Z,58.97
2023-04-22T12:09:42.660Z,58.81
2023-04-22T12:10:42.644Z,56.88
2023-04-22T12:11:42.633Z,59.78
2023-04-22T12:12:42.604Z,58.65
2023-04-22T12:13:42.640Z,57.36
2023-04-22T12:14:42.581Z,57.36
2023-04-22T12:15:42.568Z,57.20
2023-04-22T12:16:42.647Z,58.01
2023-04-22T12:17:42.590Z,57.20
2023-04-22T12:18:42.590Z,59.14
2023-04-22T12:19:42.749Z,57.69
2023-04-22T12:20:42.547Z,57.52
2023-04-22T12:21:42.542Z,58.65
2023-04-22T12:22:42.516Z,61.55
2023-04-22T12:23:42.516Z,62.84
2023-04-22T12:24:42.512Z,59.46
2023-04-22T12:25:42.533Z,57.85
2023-04-22T12:26:42.488Z,56.72
2023-04-22T12:27:42.484Z,60.10
2023-04-22T12:28:42.460Z,57.85
2023-04-22T12:29:42.470Z,63.16
2023-04-22T12:30:42.553Z,60.75
2023-04-22T12:31:42.516Z,60.75
2023-04-22T12:32:42.442Z,59.14
2023-04-22T12:33:42.471Z,60.75
2023-04-22T12:34:43.200Z,59.78
2023-04-22T12:35:42.424Z,57.04
2023-04-22T12:36:42.408Z,56.24
2023-04-22T12:37:42.396Z,58.81
2023-04-22T12:38:42.403Z,60.59
2023-04-22T12:39:42.392Z,60.10
2023-04-22T12:40:42.386Z,59.14
2023-04-22T12:41:42.365Z,57.04
2023-04-22T12:42:42.365Z,58.33
2023-04-22T12:43:42.355Z,59.78
2023-04-22T12:44:42.344Z,59.46
2023-04-22T12:45:42.349Z,58.97
2023-04-22T12:46:42.922Z,57.52
2023-04-22T12:47:42.730Z,58.97
2023-04-22T12:48:42.327Z,59.62
2023-04-22T12:49:43.566Z,57.69
2023-04-22T12:50:42.303Z,57.04
2023-04-22T12:51:42.310Z,59.46
2023-04-22T12:52:42.301Z,60.10
2023-04-22T12:53:42.278Z,58.01